Archival Weather

Chicago O'Hare International

Chicago, Illinois (KORD)

Report from: Thursday, June 23, 2022 5:51 AM CDT
Current time: Sunday, June 26, 2022 11:48 AM CDT

Current weather
Weather history
Weather forecast

Temperature19.4°C (66.9°F)
Dew point13.3°C (55.9°F)
Winds 6 kts (3.1 m/s, 6.9 mph) North-Northeast (30°)
Visibility10 mi. (16.1 km)
Clouds Few clouds 25,000 ft. (7,620 m)
Altimeter30.07 in.Hg (1018 mB)
Relative humidity68 %
Density altitude559 ft. (170 m)
Sea-level pressure101.8 kPa (1018 mB, 30.05 in.Hg)
Remarks Automated weather observing station with precipitation discriminator
Flight conditions Visual Meteorological Conditions
Raw dataKORD 231051Z 03006KT 10SM FEW250 19/13 A3007 RMK AO2 SLP176 T01940133
An error has occurred. This application may no longer respond until reloaded. Reload 🗙